Fort Dodge Regional Airport
KFOD : now visible

Airfield :











YOU CAN JOIN US ON...

 
LOGIN :

Register | Disclaimer

   EN    FR    IT 

 









Legend :    VFR   Marginal VFR   IFR   Intensive IFR   Very Intensive IFR
Visi :
Ceiling :
>= 8 km
>= 3000ft
5 to 8 km
1000 to 3000 ft
1500m to 5 km
500 to 1000 ft
800 to 1500m
200 to 500 ft
< 800m
< 200 ft
Symbols :   Thunderstorms  Fog  Heavy snow  Heavy precipitations  Wind > 20 kt






- Airport Elevation : 1156 ft
- IATA code : FOD


KFOD - Fort Dodge Regional

CURRENT METAR :
  • 021756Z AUTO 16011G17KT 10SM CLR 28/13 A3006 RMK AO2 SLP184 T02830128 10283 20167 58004

EXPIRED METARs :
  • 021656Z AUTO 15006KT 10SM CLR 28/14 A3007 RMK AO2 SLP186 T02780144
  • 021556Z AUTO 20008KT 10SM CLR 27/16 A3007 RMK AO2 SLP186 T02720156
  • 021456Z AUTO 19007KT 10SM CLR 25/16 A3007 RMK AO2 SLP188 T02500156 50002

TAF KFOD
Valid from the 02 at 18:00 until the 03 at 18:00 UTC


021724Z 0218/0318 15006KT P6SM FEW250
KZMP FIR / North America



MET'MAP, your aeronautical weather chart ! - Copyright ORBIFLY December 2007 - Disclaimer

ORBIFLY MET'MAP TEAM :

Programming & Development : Alexandra Zaïnal
Original concept : Baudouin d'Aumeries
Technical & hardware support : Manuel Goepfert
Assistance : Marc-Olivier Méhu




SOURCES & CREDITS :

   NOAA       Earth
Advisory